Time;durP1;ratioP1;P1;durP2;ratioP2;P2;SDS_P1;SDS_P2;PMS_P1;PMS_P2;Temp;Humidity;BMP_temperature;BMP_pressure;BME280_temperature;BME280_humidity;BME280_pressure;Samples;Min_cycle;Max_cycle;Signal;HPM_P1;HPM_P2
2022/09/20 00:01:39;;;;;;;4.55;1.63;;;;;;;7.13;100.00;98833.59;4186131;28;20037;-72
2022/09/20 00:03:45;;;;;;;3.83;1.50;;;;;;;7.11;100.00;98837.84;4185982;28;20392;-72
2022/09/20 00:05:46;;;;;;;2.45;1.35;;;;;;;7.10;100.00;98837.03;4184871;28;20048;-72
2022/09/20 00:07:47;;;;;;;4.00;1.50;;;;;;;7.08;100.00;98839.34;4185633;28;20477;-72
2022/09/20 00:09:47;;;;;;;2.03;1.30;;;;;;;7.11;100.00;98848.84;4184759;28;20040;-72
2022/09/20 00:11:48;;;;;;;3.72;1.75;;;;;;;7.02;100.00;98844.25;4185976;28;20090;-72
2022/09/20 00:13:50;;;;;;;3.97;1.50;;;;;;;7.00;100.00;98841.06;4185793;28;20046;-72
2022/09/20 00:15:50;;;;;;;3.85;1.85;;;;;;;6.98;100.00;98831.56;4186315;28;20040;-72
2022/09/20 00:17:51;;;;;;;5.30;1.83;;;;;;;7.01;100.00;98836.34;4185021;28;20040;-72
2022/09/20 00:19:51;;;;;;;3.85;1.65;;;;;;;7.06;100.00;98830.63;4184602;28;20163;-72
2022/09/20 00:21:51;;;;;;;3.72;1.60;;;;;;;7.08;100.00;98827.53;4185668;28;20812;-72
2022/09/20 00:23:52;;;;;;;5.72;2.00;;;;;;;7.12;100.00;98837.50;4185578;28;20471;-72
2022/09/20 00:25:54;;;;;;;2.90;1.38;;;;;;;7.11;100.00;98838.63;4183937;28;20068;-72
2022/09/20 00:27:55;;;;;;;4.25;1.48;;;;;;;7.11;100.00;98844.13;4185554;28;20083;-71
2022/09/20 00:29:55;;;;;;;3.67;1.50;;;;;;;7.09;100.00;98834.63;4182457;28;20536;-72
2022/09/20 00:31:55;;;;;;;4.15;1.58;;;;;;;7.10;100.00;98842.53;4183900;28;20037;-72
2022/09/20 00:36:16;;;;;;;2.60;1.45;;;;;;;7.09;100.00;98835.44;4183462;28;20110;-72
2022/09/20 00:38:16;;;;;;;3.13;1.38;;;;;;;7.08;100.00;98842.09;4184617;28;20449;-72
2022/09/20 00:40:19;;;;;;;4.00;1.50;;;;;;;7.07;100.00;98842.44;4182734;28;20058;-72
2022/09/20 00:42:26;;;;;;;6.07;1.65;;;;;;;7.09;100.00;98845.63;4182803;28;20094;-72
2022/09/20 00:44:54;;;;;;;4.32;2.00;;;;;;;7.07;100.00;98836.94;4184811;28;20045;-72
2022/09/20 00:46:54;;;;;;;6.60;2.13;;;;;;;7.06;100.00;98843.59;4183238;28;20461;-72
2022/09/20 00:49:02;;;;;;;5.10;1.33;;;;;;;7.01;100.00;98837.16;4183546;28;20071;-72
2022/09/20 00:51:12;;;;;;;4.30;1.80;;;;;;;6.99;100.00;98841.41;4182612;28;20670;-72
2022/09/20 00:53:19;;;;;;;4.68;1.80;;;;;;;6.94;100.00;98842.44;4184567;28;20434;-72
2022/09/20 00:55:20;;;;;;;2.75;1.48;;;;;;;6.96;100.00;98847.63;4182447;28;20115;-72
2022/09/20 00:57:21;;;;;;;3.78;2.00;;;;;;;6.93;100.00;98842.78;4181967;28;20045;-72
2022/09/20 00:59:29;;;;;;;3.47;1.58;;;;;;;6.96;100.00;98848.41;4184960;28;20043;-72
2022/09/20 01:01:30;;;;;;;4.30;1.95;;;;;;;7.02;100.00;98857.22;4184647;28;20056;-72
2022/09/20 01:03:35;;;;;;;3.95;2.00;;;;;;;7.07;100.00;98847.94;4187355;28;20451;-72
2022/09/20 01:05:37;;;;;;;5.25;1.63;;;;;;;7.08;100.00;98847.59;4186890;28;20047;-72
2022/09/20 01:07:39;;;;;;;4.28;1.90;;;;;;;7.09;100.00;98851.94;4186735;28;20135;-72
2022/09/20 01:09:40;;;;;;;5.72;2.40;;;;;;;7.04;100.00;98849.44;4183779;28;20044;-72
2022/09/20 01:11:40;;;;;;;5.50;1.88;;;;;;;7.02;100.00;98852.50;4187377;28;20135;-72
2022/09/20 01:13:41;;;;;;;6.72;1.70;;;;;;;7.00;100.00;98857.56;4185913;28;20389;-72
2022/09/20 01:15:46;;;;;;;3.65;1.88;;;;;;;7.00;100.00;98863.06;4186878;28;20048;-72
2022/09/20 01:17:50;;;;;;;5.57;2.40;;;;;;;6.95;100.00;98849.56;4186570;28;20037;-72
2022/09/20 01:20:07;;;;;;;3.80;2.00;;;;;;;6.96;100.00;98859.41;4185082;28;20745;-72
2022/09/20 01:22:20;;;;;;;5.38;2.03;;;;;;;6.93;100.00;98860.09;4186449;28;20315;-72
2022/09/20 01:24:41;;;;;;;6.35;2.35;;;;;;;6.91;100.00;98850.59;4186175;28;20025;-72
2022/09/20 01:26:57;;;;;;;4.47;2.22;;;;;;;6.91;100.00;98854.13;4186635;28;20476;-72
2022/09/20 01:29:23;;;;;;;4.25;1.63;;;;;;;6.92;100.00;98861.25;4185102;28;20059;-72
2022/09/20 01:31:29;;;;;;;6.43;2.30;;;;;;;6.96;100.00;98864.13;4184261;28;20056;-72
2022/09/20 01:33:43;;;;;;;7.78;2.63;;;;;;;6.98;100.00;98853.56;4185508;28;20557;-72
2022/09/20 01:35:46;;;;;;;9.82;2.20;;;;;;;6.98;100.00;98851.63;4184201;28;20118;-72
2022/09/20 01:37:54;;;;;;;6.65;2.33;;;;;;;7.04;100.00;98847.50;4186069;28;20171;-72
2022/09/20 01:40:39;;;;;;;8.95;2.28;;;;;;;7.06;100.00;98847.13;4186262;28;20287;-72
2022/09/20 01:42:48;;;;;;;4.88;2.30;;;;;;;7.10;100.00;98847.22;4154561;28;20040;-72
2022/09/20 01:45:19;;;;;;;5.05;2.30;;;;;;;7.10;100.00;98842.53;4186049;28;20052;-72
2022/09/20 01:48:02;;;;;;;5.50;2.10;;;;;;;7.12;100.00;98851.28;4185294;28;20043;-72
2022/09/20 01:50:44;;;;;;;9.50;2.30;;;;;;;7.12;100.00;98855.97;4181359;28;20598;-72
2022/09/20 01:53:15;;;;;;;4.55;2.20;;;;;;;7.12;100.00;98845.75;4156420;28;20044;-72
2022/09/20 01:55:53;;;;;;;4.85;1.88;;;;;;;7.13;100.00;98846.56;4185120;28;20427;-72
2022/09/20 01:58:12;;;;;;;4.97;2.10;;;;;;;7.14;100.00;98850.91;4186499;28;20607;-72
2022/09/20 02:00:30;;;;;;;7.57;2.05;;;;;;;7.13;100.00;98847.38;4185716;28;20037;-72
2022/09/20 02:02:39;;;;;;;4.43;2.05;;;;;;;7.15;100.00;98853.31;4183905;28;20051;-72
2022/09/20 02:05:04;;;;;;;3.80;2.03;;;;;;;7.15;100.00;98858.81;4186255;28;20078;-72
2022/09/20 02:07:37;;;;;;;6.57;2.50;;;;;;;7.21;100.00;98853.88;4185082;28;20489;-72
2022/09/20 02:09:55;;;;;;;6.63;2.75;;;;;;;7.23;100.00;98846.09;4184095;28;20119;-72
2022/09/20 02:12:14;;;;;;;6.50;2.38;;;;;;;7.24;100.00;98845.72;4186223;28;20098;-72
2022/09/20 02:14:48;;;;;;;7.55;2.60;;;;;;;7.37;100.00;98854.78;4185654;28;20458;-72
2022/09/20 02:17:07;;;;;;;5.65;2.45;;;;;;;7.41;100.00;98846.63;4185550;28;20044;-72
2022/09/20 02:19:29;;;;;;;7.28;2.80;;;;;;;7.44;100.00;98841.19;4184959;28;20511;-71
2022/09/20 02:21:48;;;;;;;8.00;2.72;;;;;;;7.52;100.00;98845.78;4185584;28;20048;-72
2022/09/20 02:23:58;;;;;;;11.90;3.40;;;;;;;7.54;100.00;98843.50;4185476;28;20082;-72
2022/09/20 02:26:14;;;;;;;12.63;2.60;;;;;;;7.54;100.00;98848.19;4184152;28;20394;-72
2022/09/20 02:28:51;;;;;;;7.35;2.83;;;;;;;7.60;100.00;98850.34;4185156;28;20440;-72
2022/09/20 02:31:09;;;;;;;7.18;2.72;;;;;;;7.57;100.00;98844.72;4185785;28;20119;-72
2022/09/20 02:33:34;;;;;;;9.35;3.05;;;;;;;7.58;100.00;98847.13;4184763;28;20287;-72
2022/09/20 02:36:06;;;;;;;8.02;2.65;;;;;;;7.65;100.00;98843.00;4185232;28;20047;-72
2022/09/20 02:38:17;;;;;;;5.25;2.50;;;;;;;7.60;100.00;98841.28;4184665;28;20040;-72
2022/09/20 02:40:42;;;;;;;7.25;2.78;;;;;;;7.58;100.00;98838.06;4184695;28;20361;-72
2022/09/20 02:43:11;;;;;;;7.80;3.17;;;;;;;7.56;100.00;98843.13;4183939;28;20072;-72
2022/09/20 02:45:53;;;;;;;7.47;2.85;;;;;;;7.59;100.00;98837.72;4185118;28;20037;-72
2022/09/20 02:47:59;;;;;;;7.50;2.90;;;;;;;7.65;100.00;98841.03;4183048;28;20044;-72
2022/09/20 02:50:24;;;;;;;7.68;3.60;;;;;;;7.65;100.00;98837.47;4186908;28;20041;-72
2022/09/20 02:52:46;;;;;;;7.82;2.78;;;;;;;7.69;100.00;98832.88;4186275;28;20067;-72
2022/09/20 02:54:55;;;;;;;4.20;2.83;;;;;;;7.64;100.00;98835.88;4187217;28;20511;-72
2022/09/20 02:57:18;;;;;;;4.40;2.72;;;;;;;7.67;100.00;98840.69;4187261;28;20516;-72
2022/09/20 02:59:24;;;;;;;9.02;2.60;;;;;;;7.70;100.00;98842.75;4185459;28;20190;-72
2022/09/20 03:01:27;;;;;;;6.60;2.53;;;;;;;7.69;100.00;98841.91;4186480;28;20052;-72
2022/09/20 03:03:59;;;;;;;5.25;2.70;;;;;;;7.69;100.00;98843.88;4186274;28;20053;-72
2022/09/20 03:06:04;;;;;;;5.97;2.38;;;;;;;7.75;100.00;98846.03;4186935;28;20052;-72
2022/09/20 03:08:27;;;;;;;8.60;2.72;;;;;;;7.78;100.00;98845.34;4186532;28;20044;-72
2022/09/20 03:10:46;;;;;;;7.65;2.53;;;;;;;7.81;100.00;98847.41;4186046;28;20040;-71
2022/09/20 03:13:10;;;;;;;4.43;2.47;;;;;;;7.85;100.00;98851.03;4186385;28;20040;-71
2022/09/20 03:15:28;;;;;;;;;;;;;;;7.81;100.00;98857.63;4186286;28;20063;-72
2022/09/20 03:17:41;;;;;;;6.90;2.80;;;;;;;7.83;100.00;98858.88;4185679;28;19927;-71
2022/09/20 03:19:44;;;;;;;;;;;;;;;7.79;100.00;98852.47;4185737;28;20511;-71
2022/09/20 03:21:53;;;;;;;5.25;2.80;;;;;;;7.77;100.00;98851.19;4186891;28;19924;-72
2022/09/20 03:24:27;;;;;;;5.80;3.10;;;;;;;7.81;100.00;98855.66;4186453;28;20070;-72
2022/09/20 03:26:51;;;;;;;5.60;2.80;;;;;;;7.80;100.00;98856.81;4185780;28;20060;-71
2022/09/20 03:29:14;;;;;;;5.93;2.35;;;;;;;7.84;100.00;98856.91;4185817;28;20300;-71
2022/09/20 03:31:26;;;;;;;;;;;;;;;7.82;100.00;98860.03;4186309;28;20079;-72
2022/09/20 03:33:38;;;;;;;5.70;3.15;;;;;;;7.82;100.00;98857.25;4185120;28;20179;-72
2022/09/20 03:35:52;;;;;;;6.97;2.97;;;;;;;7.81;100.00;98869.44;4185381;28;20075;-72
2022/09/20 03:38:14;;;;;;;6.07;3.00;;;;;;;7.80;100.00;98867.03;4186136;28;20391;-72
2022/09/20 03:40:36;;;;;;;4.63;3.05;;;;;;;7.75;100.00;98857.06;4185217;28;20041;-71
2022/09/20 03:42:47;;;;;;;8.48;3.05;;;;;;;7.75;100.00;98862.56;4186075;28;20094;-71
2022/09/20 03:45:04;;;;;;;6.50;2.80;;;;;;;7.72;100.00;98863.28;4185449;28;20480;-71
2022/09/20 03:47:24;;;;;;;5.57;2.55;;;;;;;7.75;100.00;98868.06;4186022;28;20057;-72
2022/09/20 03:49:42;;;;;;;5.03;2.55;;;;;;;7.77;100.00;98863.00;4185462;28;20060;-71
2022/09/20 03:52:13;;;;;;;5.05;2.70;;;;;;;7.74;100.00;98863.72;4186472;28;20177;-71
2022/09/20 03:54:22;;;;;;;9.82;2.70;;;;;;;7.74;100.00;98860.16;4184429;28;20040;-71
2022/09/20 03:56:38;;;;;;;3.92;2.60;;;;;;;7.76;100.00;98858.66;4184938;28;20075;-72
2022/09/20 03:59:10;;;;;;;5.20;2.47;;;;;;;7.73;100.00;98853.06;4185119;28;20080;-72
2022/09/20 04:01:26;;;;;;;5.43;2.70;;;;;;;7.72;100.00;98865.22;4183884;28;20102;-71
2022/09/20 04:03:36;;;;;;;4.38;2.55;;;;;;;7.73;100.00;98859.38;4186046;28;20484;-71
2022/09/20 04:06:15;;;;;;;5.70;2.90;;;;;;;7.71;100.00;98861.69;4185695;28;20063;-71
2022/09/20 04:08:27;;;;;;;4.47;2.30;;;;;;;7.71;100.00;98855.38;4185844;28;20040;-71
2022/09/20 04:10:45;;;;;;;5.88;2.45;;;;;;;7.70;100.00;98851.03;4185438;28;20094;-71
2022/09/20 04:13:04;;;;;;;10.00;3.45;;;;;;;7.69;100.00;98852.13;4185719;28;20121;-71
2022/09/20 04:15:26;;;;;;;7.00;2.53;;;;;;;7.68;100.00;98856.06;4186155;28;20548;-71
2022/09/20 04:17:42;;;;;;;6.60;2.63;;;;;;;7.72;100.00;98859.72;4185566;28;20052;-71
2022/09/20 04:20:01;;;;;;;6.20;3.08;;;;;;;7.70;100.00;98860.06;4184709;28;20045;-72
2022/09/20 04:22:02;;;;;;;5.68;2.50;;;;;;;7.74;100.00;98858.22;4185509;28;20337;-72
2022/09/20 04:24:22;;;;;;;11.73;3.00;;;;;;;7.76;100.00;98866.13;4185829;28;20460;-71
2022/09/20 04:26:29;;;;;;;2.85;2.17;;;;;;;7.74;100.00;98862.91;4184841;28;20063;-71
2022/09/20 04:29:01;;;;;;;7.25;2.67;;;;;;;7.75;100.00;98861.75;4186068;28;20456;-71
2022/09/20 04:31:15;;;;;;;7.38;3.50;;;;;;;7.74;100.00;98860.16;4177342;28;20571;-72
2022/09/20 04:33:41;;;;;;;9.60;2.55;;;;;;;7.77;100.00;98862.22;4185536;28;20067;-72
2022/09/20 04:36:30;;;;;;;5.05;2.40;;;;;;;7.76;100.00;98861.41;4185556;28;20085;-71
2022/09/20 04:38:32;;;;;;;5.13;2.45;;;;;;;7.73;100.00;98864.06;4187452;28;20558;-71
2022/09/20 04:40:58;;;;;;;10.85;2.97;;;;;;;7.77;100.00;98860.25;4187619;28;20408;-72
2022/09/20 04:43:20;;;;;;;8.93;2.70;;;;;;;7.80;100.00;98861.53;4188047;28;20128;-71
2022/09/20 04:45:23;;;;;;;3.45;2.15;;;;;;;7.77;100.00;98865.75;4186896;28;20485;-71
2022/09/20 04:47:35;;;;;;;5.13;3.17;;;;;;;7.74;100.00;98865.69;4189034;28;20084;-71
2022/09/20 04:49:41;;;;;;;5.35;2.38;;;;;;;7.72;100.00;98868.78;4188586;28;20076;-72
2022/09/20 04:51:45;;;;;;;3.78;2.00;;;;;;;7.67;100.00;98869.03;4188882;28;20094;-72
2022/09/20 04:53:54;;;;;;;5.00;2.00;;;;;;;7.66;100.00;98867.41;4188127;28;20041;-71
2022/09/20 04:56:27;;;;;;;6.65;2.50;;;;;;;7.69;100.00;98874.97;4189139;28;20071;-71
2022/09/20 04:58:43;;;;;;;4.83;2.37;;;;;;;7.64;100.00;98866.19;4186591;28;20048;-72
2022/09/20 05:00:49;;;;;;;5.05;2.78;;;;;;;7.62;100.00;98868.47;4188421;28;20275;-71
2022/09/20 05:03:10;;;;;;;7.55;2.40;;;;;;;7.60;100.00;98877.88;4188313;28;20055;-71
2022/09/20 05:05:19;;;;;;;8.43;2.50;;;;;;;7.60;100.00;98874.31;4188174;28;20531;-71
2022/09/20 05:07:57;;;;;;;5.80;2.30;;;;;;;7.71;100.00;98882.91;4188467;28;20047;-71
2022/09/20 05:10:23;;;;;;;6.40;2.78;;;;;;;7.72;100.00;98879.81;4187501;28;20177;-71
2022/09/20 05:12:57;;;;;;;6.93;2.70;;;;;;;7.72;100.00;98874.28;4187583;28;20048;-71
2022/09/20 05:15:10;;;;;;;3.47;2.28;;;;;;;7.68;100.00;98886.34;4188295;28;20507;-71
2022/09/20 05:17:49;;;;;;;6.25;2.25;;;;;;;7.71;100.00;98888.41;4188252;28;20512;-72
2022/09/20 05:20:23;;;;;;;9.75;3.00;;;;;;;7.71;100.00;98888.41;4187158;28;20102;-71
2022/09/20 05:22:49;;;;;;;7.00;2.08;;;;;;;7.67;100.00;98898.50;4187843;28;20036;-71
2022/09/20 05:25:24;;;;;;;4.75;2.33;;;;;;;7.65;100.00;98893.38;4187618;28;20079;-71
2022/09/20 05:27:40;;;;;;;7.53;2.95;;;;;;;7.63;100.00;98895.66;4187854;28;20068;-71
2022/09/20 05:30:00;;;;;;;7.82;2.45;;;;;;;7.64;100.00;98901.97;4187124;28;20036;-72
2022/09/20 05:32:24;;;;;;;6.95;2.47;;;;;;;7.71;100.00;98905.75;4188085;28;20060;-72
2022/09/20 05:34:41;;;;;;;4.53;2.25;;;;;;;7.71;100.00;98908.50;4187158;28;20181;-72
2022/09/20 05:36:50;;;;;;;5.97;2.40;;;;;;;7.69;100.00;98910.78;4187729;28;20044;-71
2022/09/20 05:39:26;;;;;;;6.80;3.05;;;;;;;7.70;100.00;98906.09;4186529;28;20055;-71
2022/09/20 05:41:53;;;;;;;6.28;3.20;;;;;;;7.73;100.00;98914.44;4187281;28;20044;-71
2022/09/20 05:44:14;;;;;;;4.15;2.25;;;;;;;7.86;100.00;98910.53;4188316;28;20045;-71
2022/09/20 05:46:19;;;;;;;5.13;2.83;;;;;;;7.82;100.00;98906.06;4185949;28;20060;-71
2022/09/20 05:48:37;;;;;;;9.02;2.38;;;;;;;7.81;100.00;98916.28;4186678;28;20559;-71
2022/09/20 05:50:43;;;;;;;5.65;2.40;;;;;;;7.80;100.00;98920.19;4187699;28;20552;-71
2022/09/20 05:53:08;;;;;;;9.23;2.50;;;;;;;7.82;100.00;98919.81;4187736;28;20044;-72
2022/09/20 05:55:42;;;;;;;7.78;2.35;;;;;;;7.87;100.00;98922.34;4187070;28;20500;-72
2022/09/20 05:58:06;;;;;;;6.20;2.65;;;;;;;7.89;100.00;98933.81;4186547;28;20040;-71
2022/09/20 06:00:12;;;;;;;9.02;2.65;;;;;;;7.89;100.00;98929.09;4186364;28;20122;-71
2022/09/20 06:02:39;;;;;;;7.47;3.28;;;;;;;7.95;100.00;98935.19;4187829;28;20111;-72
2022/09/20 06:04:50;;;;;;;5.22;2.53;;;;;;;8.01;100.00;98943.97;4187683;28;20585;-71
2022/09/20 06:07:00;;;;;;;7.38;3.53;;;;;;;7.94;100.00;98936.31;4175185;28;20045;-71
2022/09/20 06:09:06;;;;;;;18.95;11.75;;;;;;;7.98;100.00;98942.72;4186003;28;20044;-71
2022/09/20 06:11:06;;;;;;;11.20;6.65;;;;;;;8.02;100.00;98945.56;4186921;28;20037;-71
2022/09/20 06:13:29;;;;;;;5.65;3.35;;;;;;;8.12;100.00;98939.59;4187752;28;20392;-71
2022/09/20 06:15:53;;;;;;;6.00;2.35;;;;;;;8.17;100.00;98940.13;4186779;28;20052;-71
2022/09/20 06:18:01;;;;;;;10.70;3.40;;;;;;;8.12;100.00;98937.63;4186540;28;20485;-71
2022/09/20 06:20:27;;;;;;;7.93;2.90;;;;;;;8.18;100.00;98947.25;4178734;28;20051;-72
2022/09/20 06:22:38;;;;;;;5.93;2.53;;;;;;;8.21;100.00;98942.19;4159427;28;20509;-72
2022/09/20 06:24:55;;;;;;;6.20;2.70;;;;;;;8.21;100.00;98953.22;4184245;28;20376;-71
2022/09/20 06:26:57;;;;;;;6.45;2.60;;;;;;;8.21;100.00;98945.75;4186012;28;20262;-71
2022/09/20 06:29:05;;;;;;;;;;;;;;;8.22;100.00;98946.56;4185412;28;20055;-72
2022/09/20 06:31:07;;;;;;;15.13;3.80;;;;;;;8.23;100.00;98948.16;4184834;28;20246;-72
2022/09/20 06:33:19;;;;;;;13.95;3.28;;;;;;;8.26;100.00;98948.25;4182087;28;20123;-71
2022/09/20 06:35:22;;;;;;;11.07;3.30;;;;;;;8.30;100.00;98951.13;4177403;28;20044;-71
2022/09/20 06:42:33;;;;;;;4.95;2.35;;;;;;;8.20;100.00;98952.44;4185314;28;20550;-72
2022/09/20 06:44:40;;;;;;;9.25;2.67;;;;;;;8.18;100.00;98949.19;4184206;28;20053;-71
2022/09/20 06:46:40;;;;;;;9.13;2.53;;;;;;;8.22;100.00;98949.31;4185156;28;20494;-72
2022/09/20 06:48:41;;;;;;;9.73;2.50;;;;;;;8.23;100.00;98953.66;4185977;28;20048;-72
2022/09/20 06:50:44;;;;;;;4.82;2.38;;;;;;;8.31;100.00;98956.28;4184016;28;20131;-72
2022/09/20 06:52:45;;;;;;;7.68;2.63;;;;;;;8.33;100.00;98965.00;4186585;28;20044;-72
2022/09/20 06:54:48;;;;;;;7.53;2.47;;;;;;;8.39;100.00;98958.09;4185275;28;20044;-72
2022/09/20 06:56:50;;;;;;;6.53;2.67;;;;;;;8.40;100.00;98958.91;4186401;28;20200;-72
2022/09/20 06:58:51;;;;;;;6.45;3.40;;;;;;;8.40;100.00;98964.41;4184991;28;20419;-72
2022/09/20 07:00:52;;;;;;;3.83;2.33;;;;;;;8.39;100.00;98960.88;4185288;28;20508;-72
2022/09/20 07:02:54;;;;;;;4.65;2.60;;;;;;;8.43;100.00;98961.75;4185870;28;20079;-72
2022/09/20 07:04:58;;;;;;;7.28;2.83;;;;;;;8.47;100.00;98967.38;4186385;28;20360;-72
2022/09/20 07:07:03;;;;;;;9.32;3.35;;;;;;;8.43;100.00;98969.22;4186369;28;20408;-72
2022/09/20 07:09:04;;;;;;;8.82;2.67;;;;;;;8.39;100.00;98971.91;4183861;28;20044;-72
2022/09/20 07:11:15;;;;;;;7.45;3.25;;;;;;;8.37;100.00;98971.44;4186286;28;20574;-72
2022/09/20 07:13:18;;;;;;;5.60;2.92;;;;;;;8.41;100.00;98972.34;4186864;28;20060;-72
2022/09/20 07:15:21;;;;;;;4.13;2.40;;;;;;;8.45;100.00;98975.22;4184815;28;20053;-72
2022/09/20 07:17:22;;;;;;;11.15;3.13;;;;;;;8.54;100.00;98973.09;4185689;28;20036;-72
2022/09/20 07:19:22;;;;;;;4.63;2.25;;;;;;;8.66;100.00;98978.53;4169202;28;20147;-72
2022/09/20 07:21:23;;;;;;;4.28;2.83;;;;;;;8.73;100.00;98975.16;4184521;28;20055;-72
2022/09/20 07:23:28;;;;;;;4.13;1.98;;;;;;;8.77;98.99;98972.50;4185284;28;20310;-72
2022/09/20 07:25:30;;;;;;;7.25;2.42;;;;;;;8.74;98.95;98968.50;4185742;28;20411;-72
2022/09/20 07:27:30;;;;;;;4.38;2.00;;;;;;;8.75;98.23;98970.09;4185791;28;20048;-72
2022/09/20 07:29:31;;;;;;;7.40;2.13;;;;;;;8.83;96.90;98971.88;4185451;28;20572;-72
2022/09/20 07:31:32;;;;;;;4.40;1.77;;;;;;;8.92;97.51;98974.47;4185088;28;20132;-72
2022/09/20 07:33:32;;;;;;;6.72;2.15;;;;;;;9.01;96.43;98975.09;4185767;28;20484;-72
2022/09/20 07:35:32;;;;;;;4.57;2.30;;;;;;;9.03;95.58;98983.03;4186556;28;20079;-72
2022/09/20 07:37:32;;;;;;;11.05;3.92;;;;;;;9.05;96.98;98977.97;4186102;28;20052;-72
2022/09/20 07:39:33;;;;;;;4.70;2.30;;;;;;;9.07;97.43;98992.22;4184942;28;20060;-72
2022/09/20 07:41:33;;;;;;;3.22;1.65;;;;;;;9.04;93.60;98981.88;4185943;28;20594;-72
2022/09/20 07:43:34;;;;;;;2.15;1.73;;;;;;;9.16;92.75;98982.59;4185123;28;20115;-71
2022/09/20 07:45:37;;;;;;;3.83;1.90;;;;;;;9.15;89.78;98981.00;4183204;28;20135;-71
2022/09/20 07:47:40;;;;;;;2.92;1.98;;;;;;;9.28;92.83;98992.75;4184881;28;20107;-72
2022/09/20 07:49:40;;;;;;;8.55;3.10;;;;;;;9.24;89.88;98992.66;4186369;28;20164;-72
2022/09/20 07:51:40;;;;;;;3.28;1.42;;;;;;;9.23;90.03;98985.53;4185484;28;20068;-72
2022/09/20 07:53:41;;;;;;;5.03;1.83;;;;;;;9.29;90.23;98994.34;4184707;28;20044;-72
2022/09/20 07:55:41;;;;;;;4.90;1.80;;;;;;;9.46;90.59;98995.94;4184767;28;20085;-72
2022/09/20 07:57:41;;;;;;;5.43;2.08;;;;;;;9.58;89.60;98993.88;4185494;28;20103;-72
2022/09/20 07:59:42;;;;;;;4.85;1.60;;;;;;;9.70;90.83;99001.25;4184499;28;20454;-72
2022/09/20 08:01:42;;;;;;;7.30;1.50;;;;;;;9.72;88.14;99000.91;4185368;28;20563;-72
2022/09/20 08:03:44;;;;;;;6.28;1.90;;;;;;;9.77;88.02;99004.19;4183911;28;20075;-71
2022/09/20 08:05:45;;;;;;;;;;;;;;;9.75;86.39;99005.69;4187493;28;20036;-72
2022/09/20 08:07:45;;;;;;;6.57;2.25;;;;;;;9.79;87.18;99007.38;4184684;28;19925;-72
2022/09/20 08:09:45;;;;;;;3.22;1.77;;;;;;;9.89;88.87;99011.56;4184693;28;20090;-72
2022/09/20 08:11:46;;;;;;;3.30;1.92;;;;;;;9.94;88.05;99016.81;4188135;28;20039;-72
2022/09/20 08:13:48;;;;;;;4.10;1.60;;;;;;;9.99;87.86;99016.50;4188821;28;20501;-72
2022/09/20 08:15:49;;;;;;;3.28;1.80;;;;;;;10.08;89.48;99021.84;4187160;28;20427;-72
2022/09/20 08:17:49;;;;;;;6.55;1.77;;;;;;;10.07;88.80;99023.00;4188248;28;20371;-72
2022/09/20 08:19:51;;;;;;;5.22;2.00;;;;;;;10.16;87.36;99018.06;4184761;28;20088;-72
2022/09/20 08:21:53;;;;;;;8.18;2.53;;;;;;;10.24;87.73;99025.38;4188124;28;20051;-72
2022/09/20 08:23:53;;;;;;;3.50;1.70;;;;;;;10.16;86.91;99025.56;4189180;28;20259;-72
2022/09/20 08:25:55;;;;;;;7.57;3.08;;;;;;;10.07;86.19;99031.28;4188719;28;20548;-72
2022/09/20 08:27:56;;;;;;;5.35;2.45;;;;;;;9.92;86.63;99021.88;4188073;28;20135;-72
2022/09/20 08:29:56;;;;;;;9.60;3.28;;;;;;;9.87;87.34;99024.94;4187749;28;20041;-72
2022/09/20 08:31:57;;;;;;;5.07;2.10;;;;;;;9.83;88.77;99035.09;4188542;28;20103;-72
2022/09/20 08:33:58;;;;;;;4.13;1.92;;;;;;;9.93;88.43;99029.03;4186872;28;20070;-72
2022/09/20 08:35:59;;;;;;;3.35;1.73;;;;;;;9.95;86.09;99037.75;4184999;28;20813;-72
2022/09/20 08:37:59;;;;;;;3.15;1.25;;;;;;;9.97;86.47;99029.09;4184276;28;20083;-72
2022/09/20 08:40:00;;;;;;;3.17;1.65;;;;;;;10.03;86.06;99025.69;4185271;28;20056;-72
2022/09/20 08:42:18;;;;;;;15.77;6.90;;;;;;;10.17;85.11;99033.50;4185866;28;20048;-72
2022/09/20 08:44:32;;;;;;;7.75;3.53;;;;;;;10.18;85.33;99035.13;4187163;28;20071;-72
2022/09/20 08:46:37;;;;;;;15.30;7.25;;;;;;;10.24;86.59;99033.69;4185841;28;20056;-72
2022/09/20 08:48:37;;;;;;;8.60;3.80;;;;;;;10.27;86.14;99038.50;4186271;28;20131;-72
2022/09/20 08:50:38;;;;;;;5.70;1.70;;;;;;;10.20;86.75;99035.56;4185287;28;20048;-72
2022/09/20 08:52:39;;;;;;;6.97;1.88;;;;;;;10.29;85.95;99025.09;4187832;28;20300;-72
2022/09/20 08:54:42;;;;;;;3.20;1.58;;;;;;;10.24;86.13;99033.69;4186816;28;20514;-72
2022/09/20 08:56:44;;;;;;;;;;;;;;;10.29;86.13;99040.91;4187534;28;20094;-72
2022/09/20 08:58:46;;;;;;;6.68;3.08;;;;;;;10.28;84.76;99034.56;4187352;28;19916;-72
2022/09/20 09:00:46;;;;;;;5.88;1.40;;;;;;;10.20;85.79;99037.50;4186371;28;20028;-72
2022/09/20 09:02:52;;;;;;;4.55;2.90;;;;;;;10.27;85.97;99043.22;4185347;28;20047;-72
2022/09/20 09:04:53;;;;;;;7.15;2.88;;;;;;;10.27;84.96;99034.94;4185924;28;20041;-72
2022/09/20 09:06:53;;;;;;;4.00;2.40;;;;;;;10.34;84.21;99040.59;4185956;28;20106;-72
2022/09/20 09:08:58;;;;;;;7.55;2.65;;;;;;;10.39;84.64;99035.59;4186985;28;20049;-72
2022/09/20 09:11:08;;;;;;;4.60;1.90;;;;;;;10.52;84.78;99036.25;4187605;28;20044;-72
2022/09/20 09:13:18;;;;;;;3.30;1.70;;;;;;;10.79;83.82;99030.84;4185176;28;20875;-72
2022/09/20 09:15:31;;;;;;;6.00;1.55;;;;;;;10.75;82.26;99039.06;4186869;28;20048;-72
2022/09/20 09:17:32;;;;;;;7.35;2.33;;;;;;;10.80;82.10;99044.31;4185237;28;20049;-72
2022/09/20 09:19:51;;;;;;;3.28;1.35;;;;;;;10.65;82.34;99050.72;4186174;28;20041;-72
2022/09/20 09:22:03;;;;;;;5.97;2.15;;;;;;;10.84;81.66;99041.59;4185567;28;20475;-72
2022/09/20 09:24:08;;;;;;;3.90;1.58;;;;;;;10.75;82.04;99039.06;4187281;28;20036;-72
2022/09/20 09:26:23;;;;;;;7.10;1.98;;;;;;;10.72;81.65;99033.47;4186332;28;20031;-72
2022/09/20 09:28:28;;;;;;;5.18;2.40;;;;;;;10.71;81.23;99045.72;4185498;28;20048;-72
2022/09/20 09:30:48;;;;;;;3.72;1.98;;;;;;;10.81;79.93;99036.81;4186297;28;20036;-72
2022/09/20 09:32:49;;;;;;;9.70;2.75;;;;;;;10.68;78.16;99045.28;4185241;28;20444;-72
2022/09/20 09:34:49;;;;;;;5.55;2.17;;;;;;;10.70;79.83;99042.16;4186035;28;20049;-72
2022/09/20 09:36:50;;;;;;;7.57;2.40;;;;;;;10.63;79.94;99053.06;4185166;28;20353;-72
2022/09/20 09:39:17;;;;;;;7.18;1.70;;;;;;;10.66;79.45;99042.06;4185857;28;20448;-72
2022/09/20 09:41:25;;;;;;;11.65;6.32;;;;;;;10.93;79.90;99043.00;4186133;28;20044;-72
2022/09/20 09:43:31;;;;;;;3.08;1.50;;;;;;;11.09;79.70;99048.44;4186847;28;20052;-72
2022/09/20 09:45:37;;;;;;;2.40;1.20;;;;;;;11.08;77.78;99048.78;4187671;28;20040;-72
2022/09/20 09:47:37;;;;;;;5.68;1.40;;;;;;;11.01;77.67;99043.94;4187613;28;20040;-72
2022/09/20 09:49:55;;;;;;;4.30;1.30;;;;;;;11.08;78.04;99048.78;4186715;28;20044;-72
2022/09/20 09:52:13;;;;;;;2.10;1.10;;;;;;;11.16;79.08;99048.56;4187540;28;20048;-72
2022/09/20 09:54:18;;;;;;;5.28;1.58;;;;;;;10.96;79.66;99047.78;4186982;28;20067;-72
2022/09/20 09:56:47;;;;;;;4.50;1.38;;;;;;;11.08;79.75;99049.59;4180968;28;20032;-72
2022/09/20 09:59:09;;;;;;;2.00;1.10;;;;;;;11.01;79.14;99054.22;4179363;28;20124;-72
2022/09/20 10:01:26;;;;;;;2.63;1.30;;;;;;;11.10;78.95;99052.00;4182178;28;20163;-72
2022/09/20 10:03:45;;;;;;;2.05;1.10;;;;;;;10.95;78.54;99043.44;4173749;28;20064;-72
2022/09/20 10:05:57;;;;;;;4.03;1.42;;;;;;;11.09;78.22;99047.63;4185610;28;20086;-72
2022/09/20 10:08:04;;;;;;;3.20;2.00;;;;;;;11.02;78.93;99051.06;4184229;28;20394;-72
2022/09/20 10:10:40;;;;;;;4.97;1.85;;;;;;;11.13;78.88;99051.25;4185065;28;20473;-72
2022/09/20 10:13:14;;;;;;;6.72;2.30;;;;;;;11.09;78.77;99042.06;4182072;28;20602;-72
2022/09/20 10:15:27;;;;;;;5.50;3.08;;;;;;;11.25;79.92;99054.69;4183138;28;20044;-72
2022/09/20 10:18:16;;;;;;;7.90;2.55;;;;;;;11.38;78.35;99044.19;4183487;28;20054;-72
2022/09/20 10:20:44;;;;;;;3.35;1.67;;;;;;;11.40;77.65;99043.81;4146016;28;20044;-72
2022/09/20 10:23:18;;;;;;;3.35;1.55;;;;;;;11.50;76.90;99044.03;4186744;28;20071;-72
2022/09/20 10:25:22;;;;;;;2.58;1.38;;;;;;;11.55;75.52;99048.44;4187119;28;20052;-72
2022/09/20 10:27:32;;;;;;;5.32;2.20;;;;;;;11.39;76.24;99031.16;4185821;28;20489;-72
2022/09/20 10:29:40;;;;;;;4.20;1.63;;;;;;;11.45;77.55;99037.97;4184111;28;20047;-72